createdAt,value
2023-05-23T00:02:35.055Z,8.32
2023-05-23T00:07:26.937Z,8.20
2023-05-23T00:12:19.634Z,10.05
2023-05-23T00:17:12.070Z,10.23
2023-05-23T00:22:04.322Z,10.40
2023-05-23T00:26:56.112Z,10.23
2023-05-23T00:31:47.939Z,11.55
2023-05-23T00:36:41.653Z,9.35
2023-05-23T00:41:33.367Z,12.98
2023-05-23T00:46:26.660Z,9.15
2023-05-23T00:51:18.972Z,12.43
2023-05-23T00:56:12.227Z,9.77
2023-05-23T01:01:04.205Z,11.48
2023-05-23T01:05:56.691Z,12.40
2023-05-23T01:10:49.591Z,10.60
2023-05-23T01:16:07.697Z,11.43
2023-05-23T01:21:17.919Z,13.30
2023-05-23T01:26:19.638Z,10.25
2023-05-23T01:31:12.942Z,10.85
2023-05-23T01:36:06.005Z,10.57
2023-05-23T01:40:57.934Z,11.90
2023-05-23T01:45:52.069Z,12.07
2023-05-23T01:50:48.002Z,10.93
2023-05-23T01:55:42.593Z,10.35
2023-05-23T02:00:34.577Z,11.18
2023-05-23T02:05:27.227Z,13.57
2023-05-23T02:10:19.579Z,10.65
2023-05-23T02:15:11.498Z,11.68
2023-05-23T02:20:04.006Z,10.48
2023-05-23T02:24:55.758Z,10.45
2023-05-23T02:29:47.557Z,11.50
2023-05-23T02:34:40.245Z,13.15
2023-05-23T02:39:32.104Z,11.00
2023-05-23T02:44:23.857Z,12.73
2023-05-23T02:49:15.600Z,10.43
2023-05-23T02:54:07.376Z,10.95
2023-05-23T02:58:59.085Z,11.68
2023-05-23T03:03:50.887Z,13.25
2023-05-23T03:08:43.680Z,13.40
2023-05-23T03:13:36.062Z,13.25
2023-05-23T03:18:27.910Z,12.05
2023-05-23T03:23:19.753Z,12.60
2023-05-23T03:28:14.352Z,12.75
2023-05-23T03:38:12.524Z,12.20
2023-05-23T03:43:06.775Z,15.27
2023-05-23T03:47:59.587Z,11.48
2023-05-23T03:52:51.432Z,12.85
2023-05-23T03:57:43.135Z,12.43
2023-05-23T10:21:19.810Z,18.08
2023-05-23T10:26:11.971Z,19.38
2023-05-23T10:31:04.588Z,20.38
2023-05-23T16:35:38.112Z,18.10
2023-05-23T16:40:29.886Z,17.58
2023-05-23T18:02:06.213Z,6.25
2023-05-23T18:06:57.938Z,8.10
2023-05-23T19:17:48.197Z,5.70
2023-05-23T19:33:24.075Z,5.93
2023-05-23T19:38:15.841Z,5.05
2023-05-23T20:21:13.751Z,6.00
2023-05-23T20:31:21.303Z,4.82
2023-05-23T20:41:20.998Z,4.75
2023-05-23T21:38:16.013Z,6.32
2023-05-23T21:53:20.558Z,7.43
2023-05-23T21:58:12.311Z,7.53
2023-05-23T22:24:26.981Z,11.98
2023-05-23T22:29:18.744Z,8.20
2023-05-23T22:34:10.457Z,9.30
2023-05-23T22:39:04.958Z,7.88
2023-05-23T22:43:57.058Z,10.60
2023-05-23T22:48:49.440Z,10.80
2023-05-23T22:53:41.474Z,9.43
2023-05-23T22:58:33.202Z,10.45
2023-05-23T23:35:27.857Z,9.50
2023-05-23T23:40:19.583Z,7.45
2023-05-23T23:45:11.566Z,8.20
2023-05-23T23:50:04.935Z,6.75
2023-05-23T23:54:56.688Z,9.10
2023-05-23T23:59:48.471Z,6.65
